sensor_id;sensor_type;location;lat;lon;timestamp;pressure;altitude;pressure_sealevel;temperature;humidity
63715;BME280;49858;48.956;9.076;2023-04-26T00:26:21;98845.00;;;7.22;100.00
63715;BME280;49858;48.956;9.076;2023-04-26T00:28:49;98845.59;;;7.28;100.00
63715;BME280;49858;48.956;9.076;2023-04-26T00:31:17;98847.81;;;7.05;100.00
63715;BME280;49858;48.956;9.076;2023-04-26T00:33:45;98838.94;;;7.08;100.00
63715;BME280;49858;48.956;9.076;2023-04-26T00:36:13;98846.19;;;7.04;100.00
63715;BME280;49858;48.956;9.076;2023-04-26T00:38:42;98841.56;;;6.96;100.00
63715;BME280;49858;48.956;9.076;2023-04-26T00:41:10;98839.94;;;7.03;100.00
63715;BME280;49858;48.956;9.076;2023-04-26T00:43:39;98841.78;;;7.20;100.00
63715;BME280;49858;48.956;9.076;2023-04-26T00:46:08;98841.25;;;7.27;100.00
63715;BME280;49858;48.956;9.076;2023-04-26T00:48:36;98843.09;;;7.14;100.00
63715;BME280;49858;48.956;9.076;2023-04-26T00:51:05;98846.50;;;7.40;100.00
63715;BME280;49858;48.956;9.076;2023-04-26T00:53:33;98847.94;;;7.38;100.00
63715;BME280;49858;48.956;9.076;2023-04-26T00:56:02;98846.38;;;7.58;100.00
63715;BME280;49858;48.956;9.076;2023-04-26T00:58:31;98836.19;;;7.67;100.00
63715;BME280;49858;48.956;9.076;2023-04-26T01:01:00;98846.19;;;7.33;100.00
63715;BME280;49858;48.956;9.076;2023-04-26T01:03:28;98843.41;;;7.42;100.00
63715;BME280;49858;48.956;9.076;2023-04-26T01:05:57;98844.56;;;7.41;100.00
63715;BME280;49858;48.956;9.076;2023-04-26T01:08:25;98845.38;;;7.62;100.00
63715;BME280;49858;48.956;9.076;2023-04-26T01:10:57;98842.44;;;7.88;100.00
63715;BME280;49858;48.956;9.076;2023-04-26T01:13:25;98843.44;;;8.05;100.00
63715;BME280;49858;48.956;9.076;2023-04-26T01:15:54;98837.75;;;8.10;100.00
63715;BME280;49858;48.956;9.076;2023-04-26T01:18:24;98841.03;;;8.03;100.00
63715;BME280;49858;48.956;9.076;2023-04-26T01:20:52;98844.78;;;7.78;100.00
63715;BME280;49858;48.956;9.076;2023-04-26T01:23:23;98838.50;;;7.77;100.00
63715;BME280;49858;48.956;9.076;2023-04-26T01:25:51;98830.22;;;7.65;100.00
63715;BME280;49858;48.956;9.076;2023-04-26T01:28:21;98837.03;;;8.01;100.00
63715;BME280;49858;48.956;9.076;2023-04-26T01:30:49;98832.06;;;8.15;100.00
63715;BME280;49858;48.956;9.076;2023-04-26T01:33:17;98824.28;;;8.05;100.00
63715;BME280;49858;48.956;9.076;2023-04-26T01:35:45;98828.63;;;7.64;100.00
63715;BME280;49858;48.956;9.076;2023-04-26T01:38:12;98828.34;;;7.78;100.00
63715;BME280;49858;48.956;9.076;2023-04-26T01:40:43;98835.13;;;8.13;100.00
63715;BME280;49858;48.956;9.076;2023-04-26T01:43:11;98829.25;;;8.03;100.00
63715;BME280;49858;48.956;9.076;2023-04-26T01:45:41;98828.53;;;7.93;100.00
63715;BME280;49858;48.956;9.076;2023-04-26T01:48:27;98834.41;;;8.04;100.00
63715;BME280;49858;48.956;9.076;2023-04-26T01:50:54;98818.72;;;8.59;100.00
63715;BME280;49858;48.956;9.076;2023-04-26T01:53:22;98824.41;;;8.41;100.00
63715;BME280;49858;48.956;9.076;2023-04-26T01:55:51;98822.59;;;7.91;100.00
63715;BME280;49858;48.956;9.076;2023-04-26T01:58:20;98826.84;;;7.38;100.00
63715;BME280;49858;48.956;9.076;2023-04-26T02:00:48;98830.59;;;7.04;100.00
63715;BME280;49858;48.956;9.076;2023-04-26T02:03:16;98842.50;;;6.70;100.00
63715;BME280;49858;48.956;9.076;2023-04-26T02:05:44;98835.53;;;6.81;100.00
63715;BME280;49858;48.956;9.076;2023-04-26T02:08:12;98835.22;;;7.12;100.00
63715;BME280;49858;48.956;9.076;2023-04-26T02:10:40;98835.34;;;7.46;100.00
63715;BME280;49858;48.956;9.076;2023-04-26T02:13:09;98831.63;;;7.92;100.00
63715;BME280;49858;48.956;9.076;2023-04-26T02:15:37;98825.22;;;7.67;100.00
63715;BME280;49858;48.956;9.076;2023-04-26T02:18:05;98833.16;;;7.39;100.00
63715;BME280;49858;48.956;9.076;2023-04-26T02:20:34;98829.94;;;7.37;100.00
63715;BME280;49858;48.956;9.076;2023-04-26T02:23:03;98820.59;;;7.80;100.00
63715;BME280;49858;48.956;9.076;2023-04-26T02:25:31;98826.88;;;7.80;100.00
63715;BME280;49858;48.956;9.076;2023-04-26T02:27:59;98829.03;;;7.54;100.00
63715;BME280;49858;48.956;9.076;2023-04-26T02:30:28;98825.22;;;7.67;100.00
63715;BME280;49858;48.956;9.076;2023-04-26T02:32:57;98833.03;;;7.77;100.00
63715;BME280;49858;48.956;9.076;2023-04-26T02:35:29;98832.06;;;7.02;100.00
63715;BME280;49858;48.956;9.076;2023-04-26T02:37:57;98843.44;;;6.74;100.00
63715;BME280;49858;48.956;9.076;2023-04-26T02:40:25;98845.16;;;6.87;100.00
63715;BME280;49858;48.956;9.076;2023-04-26T02:42:54;98855.91;;;6.37;100.00
63715;BME280;49858;48.956;9.076;2023-04-26T02:45:22;98861.09;;;6.21;100.00
63715;BME280;49858;48.956;9.076;2023-04-26T02:47:51;98861.09;;;6.12;100.00
63715;BME280;49858;48.956;9.076;2023-04-26T02:50:19;98863.78;;;6.30;100.00
63715;BME280;49858;48.956;9.076;2023-04-26T02:52:48;98866.22;;;6.14;100.00
63715;BME280;49858;48.956;9.076;2023-04-26T02:55:16;98865.41;;;5.79;100.00
63715;BME280;49858;48.956;9.076;2023-04-26T02:57:44;98860.09;;;5.56;100.00
63715;BME280;49858;48.956;9.076;2023-04-26T03:00:12;98871.34;;;5.89;100.00
63715;BME280;49858;48.956;9.076;2023-04-26T03:02:40;98871.69;;;5.97;100.00
63715;BME280;49858;48.956;9.076;2023-04-26T03:05:10;98870.56;;;5.80;100.00
63715;BME280;49858;48.956;9.076;2023-04-26T03:07:39;98872.78;;;5.78;100.00
63715;BME280;49858;48.956;9.076;2023-04-26T03:10:09;98873.91;;;5.77;100.00
63715;BME280;49858;48.956;9.076;2023-04-26T03:12:39;98879.09;;;6.22;100.00
63715;BME280;49858;48.956;9.076;2023-04-26T03:15:08;98865.88;;;6.42;100.00
63715;BME280;49858;48.956;9.076;2023-04-26T03:17:38;98869.00;;;6.78;100.00
63715;BME280;49858;48.956;9.076;2023-04-26T03:20:07;98866.31;;;6.52;100.00
63715;BME280;49858;48.956;9.076;2023-04-26T03:22:38;98866.69;;;5.90;100.00
63715;BME280;49858;48.956;9.076;2023-04-26T03:25:07;98874.66;;;5.34;100.00
63715;BME280;49858;48.956;9.076;2023-04-26T03:27:34;98872.31;;;5.76;100.00
63715;BME280;49858;48.956;9.076;2023-04-26T03:30:03;98871.34;;;5.89;100.00
63715;BME280;49858;48.956;9.076;2023-04-26T03:32:33;98880.47;;;5.68;100.00
63715;BME280;49858;48.956;9.076;2023-04-26T03:35:01;98881.09;;;5.38;100.00
63715;BME280;49858;48.956;9.076;2023-04-26T03:37:31;98884.38;;;5.93;100.00
63715;BME280;49858;48.956;9.076;2023-04-26T03:40:06;98878.25;;;5.78;100.00
63715;BME280;49858;48.956;9.076;2023-04-26T03:42:35;98877.13;;;5.71;100.00
63715;BME280;49858;48.956;9.076;2023-04-26T03:45:04;98884.31;;;5.49;100.00
63715;BME280;49858;48.956;9.076;2023-04-26T03:47:31;98875.31;;;5.40;100.00
63715;BME280;49858;48.956;9.076;2023-04-26T03:50:00;98877.44;;;5.86;100.00
63715;BME280;49858;48.956;9.076;2023-04-26T03:52:28;98877.78;;;5.76;100.00
63715;BME280;49858;48.956;9.076;2023-04-26T03:54:56;98872.50;;;5.88;100.00
63715;BME280;49858;48.956;9.076;2023-04-26T03:57:25;98877.81;;;5.19;100.00
63715;BME280;49858;48.956;9.076;2023-04-26T03:59:53;98880.00;;;5.66;100.00
63715;BME280;49858;48.956;9.076;2023-04-26T04:02:21;98886.94;;;5.89;100.00
63715;BME280;49858;48.956;9.076;2023-04-26T04:04:49;98881.00;;;5.12;100.00
63715;BME280;49858;48.956;9.076;2023-04-26T04:07:18;98885.69;;;6.04;100.00
63715;BME280;49858;48.956;9.076;2023-04-26T04:09:47;98883.75;;;5.96;100.00
63715;BME280;49858;48.956;9.076;2023-04-26T04:12:15;98873.63;;;6.13;100.00
63715;BME280;49858;48.956;9.076;2023-04-26T04:14:44;98866.94;;;6.58;100.00
63715;BME280;49858;48.956;9.076;2023-04-26T04:17:12;98868.13;;;6.95;100.00
63715;BME280;49858;48.956;9.076;2023-04-26T04:19:40;98862.72;;;6.78;100.00
63715;BME280;49858;48.956;9.076;2023-04-26T04:22:08;98857.19;;;6.95;100.00
63715;BME280;49858;48.956;9.076;2023-04-26T04:24:36;98855.56;;;7.32;100.00
63715;BME280;49858;48.956;9.076;2023-04-26T04:27:05;98847.53;;;6.98;100.00
63715;BME280;49858;48.956;9.076;2023-04-26T04:29:33;98856.75;;;5.85;100.00
63715;BME280;49858;48.956;9.076;2023-04-26T04:32:03;98867.44;;;5.38;100.00
63715;BME280;49858;48.956;9.076;2023-04-26T04:34:33;98873.06;;;5.33;100.00
63715;BME280;49858;48.956;9.076;2023-04-26T04:37:01;98879.56;;;5.15;100.00
63715;BME280;49858;48.956;9.076;2023-04-26T04:39:31;98891.28;;;6.16;100.00
63715;BME280;49858;48.956;9.076;2023-04-26T04:42:00;98889.47;;;5.68;100.00
63715;BME280;49858;48.956;9.076;2023-04-26T04:44:28;98889.81;;;5.75;100.00
63715;BME280;49858;48.956;9.076;2023-04-26T04:46:57;98890.81;;;6.23;100.00
63715;BME280;49858;48.956;9.076;2023-04-26T04:49:26;98888.78;;;6.75;100.00
63715;BME280;49858;48.956;9.076;2023-04-26T04:51:54;98885.41;;;6.78;100.00
63715;BME280;49858;48.956;9.076;2023-04-26T04:54:23;98883.66;;;6.74;100.00
63715;BME280;49858;48.956;9.076;2023-04-26T04:56:51;98878.19;;;7.12;100.00
63715;BME280;49858;48.956;9.076;2023-04-26T04:59:19;98894.13;;;5.59;100.00
63715;BME280;49858;48.956;9.076;2023-04-26T05:01:48;98902.94;;;5.47;100.00
63715;BME280;49858;48.956;9.076;2023-04-26T05:04:17;98917.44;;;5.91;100.00
63715;BME280;49858;48.956;9.076;2023-04-26T05:06:48;98913.28;;;6.54;100.00
63715;BME280;49858;48.956;9.076;2023-04-26T05:09:17;98908.41;;;5.73;100.00
63715;BME280;49858;48.956;9.076;2023-04-26T05:11:45;98907.69;;;6.07;100.00
63715;BME280;49858;48.956;9.076;2023-04-26T05:14:14;98912.72;;;6.87;100.00
63715;BME280;49858;48.956;9.076;2023-04-26T05:16:42;98907.66;;;7.06;100.00
63715;BME280;49858;48.956;9.076;2023-04-26T05:19:10;98911.25;;;6.89;100.00
63715;BME280;49858;48.956;9.076;2023-04-26T05:21:39;98913.13;;;6.42;100.00
63715;BME280;49858;48.956;9.076;2023-04-26T05:24:08;98908.53;;;6.81;100.00
63715;BME280;49858;48.956;9.076;2023-04-26T05:26:36;98911.53;;;6.50;100.00
63715;BME280;49858;48.956;9.076;2023-04-26T05:29:23;98913.47;;;6.40;100.00
63715;BME280;49858;48.956;9.076;2023-04-26T05:32:02;98916.06;;;7.39;100.00
63715;BME280;49858;48.956;9.076;2023-04-26T05:34:46;98916.88;;;7.31;100.00
63715;BME280;49858;48.956;9.076;2023-04-26T05:37:15;98924.88;;;6.25;100.00
63715;BME280;49858;48.956;9.076;2023-04-26T05:39:45;98934.66;;;6.52;100.00
63715;BME280;49858;48.956;9.076;2023-04-26T05:42:13;98921.28;;;7.53;100.00
63715;BME280;49858;48.956;9.076;2023-04-26T05:44:43;98916.00;;;7.78;100.00
63715;BME280;49858;48.956;9.076;2023-04-26T05:47:12;98906.97;;;8.19;100.00
63715;BME280;49858;48.956;9.076;2023-04-26T05:52:58;98933.97;;;5.77;100.00
63715;BME280;49858;48.956;9.076;2023-04-26T05:55:27;98937.81;;;5.76;100.00
63715;BME280;49858;48.956;9.076;2023-04-26T05:57:55;98940.78;;;6.14;100.00
63715;BME280;49858;48.956;9.076;2023-04-26T06:00:24;98942.06;;;6.17;100.00
63715;BME280;49858;48.956;9.076;2023-04-26T06:02:52;98940.81;;;7.05;100.00
63715;BME280;49858;48.956;9.076;2023-04-26T06:05:20;98939.53;;;7.40;100.00
63715;BME280;49858;48.956;9.076;2023-04-26T06:07:49;98930.13;;;7.80;100.00
63715;BME280;49858;48.956;9.076;2023-04-26T06:10:17;98932.22;;;8.66;100.00
63715;BME280;49858;48.956;9.076;2023-04-26T06:12:46;98914.53;;;8.43;100.00
63715;BME280;49858;48.956;9.076;2023-04-26T06:15:16;98931.28;;;6.64;100.00
63715;BME280;49858;48.956;9.076;2023-04-26T06:17:43;98937.97;;;6.93;100.00
63715;BME280;49858;48.956;9.076;2023-04-26T06:20:11;98944.50;;;7.77;100.00
63715;BME280;49858;48.956;9.076;2023-04-26T06:22:39;98934.50;;;7.51;100.00
63715;BME280;49858;48.956;9.076;2023-04-26T06:25:10;98947.03;;;7.14;100.00
63715;BME280;49858;48.956;9.076;2023-04-26T06:27:38;98943.19;;;7.53;100.00
63715;BME280;49858;48.956;9.076;2023-04-26T06:30:08;98935.72;;;8.34;100.00
63715;BME280;49858;48.956;9.076;2023-04-26T06:32:43;98944.91;;;8.38;100.00
63715;BME280;49858;48.956;9.076;2023-04-26T06:35:12;98947.25;;;7.77;100.00
63715;BME280;49858;48.956;9.076;2023-04-26T06:37:40;98962.03;;;7.08;100.00
63715;BME280;49858;48.956;9.076;2023-04-26T06:40:09;98964.69;;;6.78;100.00
63715;BME280;49858;48.956;9.076;2023-04-26T06:42:39;98951.75;;;8.02;100.00
63715;BME280;49858;48.956;9.076;2023-04-26T06:45:24;98949.19;;;8.18;100.00
63715;BME280;49858;48.956;9.076;2023-04-26T06:47:53;98954.06;;;7.32;100.00
63715;BME280;49858;48.956;9.076;2023-04-26T06:50:23;98951.06;;;7.84;100.00
63715;BME280;49858;48.956;9.076;2023-04-26T06:52:51;98936.81;;;7.70;100.00
63715;BME280;49858;48.956;9.076;2023-04-26T06:55:18;98939.38;;;8.59;100.00
63715;BME280;49858;48.956;9.076;2023-04-26T06:57:48;98942.28;;;9.20;100.00
63715;BME280;49858;48.956;9.076;2023-04-26T07:00:16;98936.19;;;10.00;100.00
63715;BME280;49858;48.956;9.076;2023-04-26T07:02:45;98924.88;;;10.70;100.00
63715;BME280;49858;48.956;9.076;2023-04-26T07:05:14;98925.22;;;11.12;100.00
63715;BME280;49858;48.956;9.076;2023-04-26T07:07:44;98924.81;;;10.82;100.00
63715;BME280;49858;48.956;9.076;2023-04-26T07:10:14;98918.09;;;11.43;100.00
63715;BME280;49858;48.956;9.076;2023-04-26T07:12:46;98919.63;;;10.65;100.00
63715;BME280;49858;48.956;9.076;2023-04-26T07:15:14;98916.75;;;9.81;100.00
63715;BME280;49858;48.956;9.076;2023-04-26T07:17:42;98921.25;;;10.82;100.00
63715;BME280;49858;48.956;9.076;2023-04-26T07:20:11;98903.25;;;11.98;100.00
63715;BME280;49858;48.956;9.076;2023-04-26T07:22:41;98907.50;;;11.61;100.00
63715;BME280;49858;48.956;9.076;2023-04-26T07:25:09;98901.69;;;12.17;100.00
63715;BME280;49858;48.956;9.076;2023-04-26T07:27:37;98898.34;;;13.08;100.00
63715;BME280;49858;48.956;9.076;2023-04-26T07:30:05;98900.81;;;13.17;100.00
63715;BME280;49858;48.956;9.076;2023-04-26T07:32:33;98897.84;;;13.48;100.00
63715;BME280;49858;48.956;9.076;2023-04-26T07:35:04;98907.72;;;13.76;100.00
63715;BME280;49858;48.956;9.076;2023-04-26T07:37:34;98891.69;;;12.90;100.00
63715;BME280;49858;48.956;9.076;2023-04-26T07:40:02;98889.28;;;13.11;100.00
63715;BME280;49858;48.956;9.076;2023-04-26T07:42:31;98895.53;;;11.53;100.00
63715;BME280;49858;48.956;9.076;2023-04-26T07:44:59;98894.50;;;13.62;100.00
63715;BME280;49858;48.956;9.076;2023-04-26T07:47:27;98895.84;;;13.49;100.00
63715;BME280;49858;48.956;9.076;2023-04-26T07:49:54;98892.69;;;14.33;100.00
63715;BME280;49858;48.956;9.076;2023-04-26T07:52:22;98883.69;;;13.27;100.00
63715;BME280;49858;48.956;9.076;2023-04-26T07:54:51;98889.53;;;14.31;100.00
63715;BME280;49858;48.956;9.076;2023-04-26T07:57:19;98892.31;;;14.65;99.32
63715;BME280;49858;48.956;9.076;2023-04-26T07:59:47;98897.72;;;14.88;94.93
63715;BME280;49858;48.956;9.076;2023-04-26T08:02:15;98894.66;;;13.46;98.24
63715;BME280;49858;48.956;9.076;2023-04-26T08:04:46;98901.47;;;14.69;92.75
63715;BME280;49858;48.956;9.076;2023-04-26T08:07:15;98892.13;;;14.21;94.68
63715;BME280;49858;48.956;9.076;2023-04-26T08:09:43;98896.44;;;13.35;93.42
63715;BME280;49858;48.956;9.076;2023-04-26T08:12:12;98894.88;;;14.17;90.38
63715;BME280;49858;48.956;9.076;2023-04-26T08:14:40;98896.28;;;14.04;94.29
63715;BME280;49858;48.956;9.076;2023-04-26T08:17:08;98896.59;;;14.29;96.57
63715;BME280;49858;48.956;9.076;2023-04-26T08:19:36;98898.31;;;15.59;86.90
63715;BME280;49858;48.956;9.076;2023-04-26T08:22:04;98905.44;;;15.53;72.41
63715;BME280;49858;48.956;9.076;2023-04-26T08:24:32;98892.38;;;15.61;72.77
63715;BME280;49858;48.956;9.076;2023-04-26T08:27:00;98899.53;;;16.21;75.56
63715;BME280;49858;48.956;9.076;2023-04-26T08:29:30;98903.41;;;17.00;65.24
63715;BME280;49858;48.956;9.076;2023-04-26T08:31:58;98894.44;;;16.37;68.96
63715;BME280;49858;48.956;9.076;2023-04-26T08:34:26;98899.88;;;17.74;60.36
63715;BME280;49858;48.956;9.076;2023-04-26T08:36:54;98893.69;;;18.54;58.25
63715;BME280;49858;48.956;9.076;2023-04-26T08:39:22;98894.59;;;18.16;43.34
63715;BME280;49858;48.956;9.076;2023-04-26T08:41:52;98897.69;;;16.53;50.39
63715;BME280;49858;48.956;9.076;2023-04-26T08:44:21;98897.06;;;17.17;45.30
63715;BME280;49858;48.956;9.076;2023-04-26T08:47:03;98909.44;;;13.35;77.09
63715;BME280;49858;48.956;9.076;2023-04-26T08:49:39;98902.69;;;15.13;75.67
63715;BME280;49858;48.956;9.076;2023-04-26T08:52:08;98898.19;;;15.93;66.43
63715;BME280;49858;48.956;9.076;2023-04-26T08:54:38;98898.53;;;15.84;61.80
63715;BME280;49858;48.956;9.076;2023-04-26T08:57:07;98904.88;;;14.55;73.42
63715;BME280;49858;48.956;9.076;2023-04-26T08:59:36;98901.47;;;13.29;76.84
63715;BME280;49858;48.956;9.076;2023-04-26T09:02:06;98894.38;;;12.44;74.26
63715;BME280;49858;48.956;9.076;2023-04-26T09:04:36;98907.88;;;11.27;85.02
63715;BME280;49858;48.956;9.076;2023-04-26T09:07:06;98899.09;;;13.54;74.95
63715;BME280;49858;48.956;9.076;2023-04-26T09:09:35;98893.84;;;14.29;67.45
63715;BME280;49858;48.956;9.076;2023-04-26T09:12:04;98892.59;;;15.90;56.38
63715;BME280;49858;48.956;9.076;2023-04-26T09:14:32;98887.53;;;17.11;49.74
63715;BME280;49858;48.956;9.076;2023-04-26T09:17:00;98882.00;;;17.79;45.30
63715;BME280;49858;48.956;9.076;2023-04-26T09:19:37;98880.09;;;18.71;47.36
63715;BME280;49858;48.956;9.076;2023-04-26T09:22:05;98884.13;;;19.22;44.56
63715;BME280;49858;48.956;9.076;2023-04-26T09:24:47;98882.00;;;17.79;45.23
63715;BME280;49858;48.956;9.076;2023-04-26T09:27:15;98878.88;;;18.68;42.30
63715;BME280;49858;48.956;9.076;2023-04-26T09:29:57;98873.31;;;19.31;42.79
63715;BME280;49858;48.956;9.076;2023-04-26T09:32:25;98873.84;;;19.15;43.21
63715;BME280;49858;48.956;9.076;2023-04-26T09:34:56;98869.28;;;18.80;45.82
63715;BME280;49858;48.956;9.076;2023-04-26T09:37:23;98870.03;;;17.78;45.49
63715;BME280;49858;48.956;9.076;2023-04-26T09:39:51;98868.13;;;18.77;42.51
63715;BME280;49858;48.956;9.076;2023-04-26T09:42:20;98866.69;;;14.08;57.37
63715;BME280;49858;48.956;9.076;2023-04-26T09:44:48;98865.38;;;14.59;64.01
63715;BME280;49858;48.956;9.076;2023-04-26T09:47:17;98869.16;;;16.56;49.46
63715;BME280;49858;48.956;9.076;2023-04-26T09:49:49;98858.91;;;17.71;50.62
63715;BME280;49858;48.956;9.076;2023-04-26T09:52:19;98851.34;;;17.72;45.59
63715;BME280;49858;48.956;9.076;2023-04-26T09:54:48;98856.19;;;18.66;46.11
63715;BME280;49858;48.956;9.076;2023-04-26T09:57:18;98868.25;;;18.42;43.56
63715;BME280;49858;48.956;9.076;2023-04-26T09:59:49;98863.72;;;17.14;55.64
63715;BME280;49858;48.956;9.076;2023-04-26T10:02:22;98860.44;;;16.61;56.03
63715;BME280;49858;48.956;9.076;2023-04-26T10:04:51;98860.94;;;15.94;54.52
63715;BME280;49858;48.956;9.076;2023-04-26T10:07:22;98856.94;;;17.00;48.80
63715;BME280;49858;48.956;9.076;2023-04-26T10:09:54;98864.88;;;14.90;60.65
63715;BME280;49858;48.956;9.076;2023-04-26T10:12:23;98862.47;;;12.46;74.12
63715;BME280;49858;48.956;9.076;2023-04-26T10:14:51;98848.81;;;13.98;74.70
63715;BME280;49858;48.956;9.076;2023-04-26T10:17:19;98859.94;;;12.57;79.36
63715;BME280;49858;48.956;9.076;2023-04-26T10:19:51;98855.81;;;11.89;79.67
63715;BME280;49858;48.956;9.076;2023-04-26T10:22:24;98845.06;;;13.57;75.66
63715;BME280;49858;48.956;9.076;2023-04-26T10:24:53;98854.59;;;14.53;69.19
63715;BME280;49858;48.956;9.076;2023-04-26T10:27:46;98856.91;;;17.86;56.65
63715;BME280;49858;48.956;9.076;2023-04-26T10:30:14;98852.09;;;18.01;53.45
63715;BME280;49858;48.956;9.076;2023-04-26T10:33:10;98842.66;;;18.68;50.10
63715;BME280;49858;48.956;9.076;2023-04-26T10:39:17;98845.31;;;14.72;65.00
63715;BME280;49858;48.956;9.076;2023-04-26T10:41:46;98834.66;;;17.72;51.10
63715;BME280;49858;48.956;9.076;2023-04-26T10:44:36;98840.53;;;19.87;45.92
63715;BME280;49858;48.956;9.076;2023-04-26T10:47:06;98833.03;;;20.14;41.95
63715;BME280;49858;48.956;9.076;2023-04-26T10:49:44;98826.56;;;19.46;40.75
63715;BME280;49858;48.956;9.076;2023-04-26T10:52:15;98828.13;;;19.91;41.18
63715;BME280;49858;48.956;9.076;2023-04-26T10:54:52;98822.69;;;21.50;38.11
63715;BME280;49858;48.956;9.076;2023-04-26T10:57:20;98814.41;;;22.06;35.88
63715;BME280;49858;48.956;9.076;2023-04-26T11:03:04;98827.59;;;20.34;41.60
63715;BME280;49858;48.956;9.076;2023-04-26T11:05:37;98815.72;;;21.11;38.56
63715;BME280;49858;48.956;9.076;2023-04-26T11:08:14;98824.28;;;20.43;36.98
63715;BME280;49858;48.956;9.076;2023-04-26T11:10:48;98817.28;;;20.89;36.20
63715;BME280;49858;48.956;9.076;2023-04-26T11:13:18;98806.88;;;21.83;33.22
63715;BME280;49858;48.956;9.076;2023-04-26T11:15:46;98806.53;;;22.41;35.84
63715;BME280;49858;48.956;9.076;2023-04-26T11:18:18;98801.22;;;22.07;32.84
63715;BME280;49858;48.956;9.076;2023-04-26T11:20:47;98798.59;;;21.56;33.43
63715;BME280;49858;48.956;9.076;2023-04-26T11:23:17;98797.16;;;18.85;38.48
63715;BME280;49858;48.956;9.076;2023-04-26T11:25:47;98792.22;;;19.90;38.00
63715;BME280;49858;48.956;9.076;2023-04-26T11:28:15;98785.59;;;20.96;37.12
63715;BME280;49858;48.956;9.076;2023-04-26T11:30:45;98791.25;;;21.62;35.25
63715;BME280;49858;48.956;9.076;2023-04-26T11:33:16;98782.69;;;21.50;33.46
63715;BME280;49858;48.956;9.076;2023-04-26T11:35:45;98784.38;;;21.87;32.83
63715;BME280;49858;48.956;9.076;2023-04-26T11:38:14;98771.94;;;21.25;36.16
63715;BME280;49858;48.956;9.076;2023-04-26T11:40:42;98760.31;;;22.49;33.44
63715;BME280;49858;48.956;9.076;2023-04-26T11:43:12;98761.28;;;22.59;32.02
63715;BME280;49858;48.956;9.076;2023-04-26T11:45:41;98765.34;;;22.38;31.71
63715;BME280;49858;48.956;9.076;2023-04-26T11:48:09;98754.28;;;20.81;34.36
63715;BME280;49858;48.956;9.076;2023-04-26T11:50:39;98761.31;;;19.74;35.84
63715;BME280;49858;48.956;9.076;2023-04-26T11:53:08;98762.22;;;19.63;35.57
63715;BME280;49858;48.956;9.076;2023-04-26T11:55:36;98757.59;;;20.45;34.51
63715;BME280;49858;48.956;9.076;2023-04-26T11:58:13;98747.44;;;22.68;30.13
63715;BME280;49858;48.956;9.076;2023-04-26T12:00:57;98747.19;;;20.19;34.65
63715;BME280;49858;48.956;9.076;2023-04-26T12:03:29;98750.44;;;16.21;41.84
63715;BME280;49858;48.956;9.076;2023-04-26T12:05:57;98745.41;;;20.62;34.75
63715;BME280;49858;48.956;9.076;2023-04-26T12:08:26;98745.78;;;23.03;30.18
63715;BME280;49858;48.956;9.076;2023-04-26T12:10:58;98754.03;;;19.46;34.31
63715;BME280;49858;48.956;9.076;2023-04-26T12:13:28;98744.28;;;20.26;32.54
63715;BME280;49858;48.956;9.076;2023-04-26T12:15:57;98750.63;;;21.54;31.70
63715;BME280;49858;48.956;9.076;2023-04-26T12:18:31;98746.41;;;23.73;29.21
63715;BME280;49858;48.956;9.076;2023-04-26T12:20:59;98750.84;;;23.41;29.52
63715;BME280;49858;48.956;9.076;2023-04-26T12:23:36;98740.72;;;21.50;32.47
63715;BME280;49858;48.956;9.076;2023-04-26T12:26:05;98747.78;;;20.33;34.07
63715;BME280;49858;48.956;9.076;2023-04-26T12:28:37;98744.44;;;20.15;35.13
63715;BME280;49858;48.956;9.076;2023-04-26T12:31:05;98743.09;;;22.47;33.51
63715;BME280;49858;48.956;9.076;2023-04-26T12:33:34;98746.31;;;23.76;31.17
63715;BME280;49858;48.956;9.076;2023-04-26T12:36:06;98749.41;;;24.07;31.38
63715;BME280;49858;48.956;9.076;2023-04-26T12:38:35;98745.09;;;24.57;27.82
63715;BME280;49858;48.956;9.076;2023-04-26T12:41:03;98749.91;;;22.99;31.25
63715;BME280;49858;48.956;9.076;2023-04-26T12:43:31;98747.13;;;22.99;30.77
63715;BME280;49858;48.956;9.076;2023-04-26T12:46:00;98751.75;;;23.96;29.87
63715;BME280;49858;48.956;9.076;2023-04-26T12:48:28;98743.78;;;23.04;31.04
63715;BME280;49858;48.956;9.076;2023-04-26T12:50:56;98746.94;;;23.51;29.58
63715;BME280;49858;48.956;9.076;2023-04-26T12:53:24;98741.88;;;23.46;28.54
63715;BME280;49858;48.956;9.076;2023-04-26T12:55:53;98738.13;;;19.01;34.81
63715;BME280;49858;48.956;9.076;2023-04-26T12:58:21;98742.06;;;18.52;36.27
63715;BME280;49858;48.956;9.076;2023-04-26T13:00:50;98733.25;;;18.60;35.44
63715;BME280;49858;48.956;9.076;2023-04-26T13:03:20;98742.19;;;17.28;36.74
63715;BME280;49858;48.956;9.076;2023-04-26T13:05:49;98747.72;;;16.43;40.14
63715;BME280;49858;48.956;9.076;2023-04-26T13:08:18;98744.22;;;20.60;35.12
63715;BME280;49858;48.956;9.076;2023-04-26T13:10:46;98734.94;;;19.40;34.39
63715;BME280;49858;48.956;9.076;2023-04-26T13:13:13;98737.75;;;21.13;32.29
63715;BME280;49858;48.956;9.076;2023-04-26T13:15:41;98735.94;;;21.70;32.24
63715;BME280;49858;48.956;9.076;2023-04-26T13:18:09;98726.66;;;22.82;29.21
63715;BME280;49858;48.956;9.076;2023-04-26T13:20:39;98730.50;;;22.55;30.49
63715;BME280;49858;48.956;9.076;2023-04-26T13:23:07;98726.34;;;22.27;29.84
63715;BME280;49858;48.956;9.076;2023-04-26T13:25:36;98720.84;;;21.44;32.74
63715;BME280;49858;48.956;9.076;2023-04-26T13:28:04;98723.63;;;21.64;32.57
63715;BME280;49858;48.956;9.076;2023-04-26T13:30:32;98715.19;;;21.48;31.61
63715;BME280;49858;48.956;9.076;2023-04-26T13:33:00;98722.94;;;21.80;33.78
63715;BME280;49858;48.956;9.076;2023-04-26T13:35:28;98718.81;;;21.44;33.63
63715;BME280;49858;48.956;9.076;2023-04-26T13:37:57;98727.03;;;21.75;30.95
63715;BME280;49858;48.956;9.076;2023-04-26T13:40:27;98720.31;;;22.29;30.20
63715;BME280;49858;48.956;9.076;2023-04-26T13:42:55;98726.50;;;22.73;31.59
63715;BME280;49858;48.956;9.076;2023-04-26T13:45:24;98725.94;;;21.89;31.51
63715;BME280;49858;48.956;9.076;2023-04-26T13:47:51;98724.84;;;22.23;31.37